Time;durP1;ratioP1;P1;durP2;ratioP2;P2;SDS_P1;SDS_P2;PMS_P1;PMS_P2;Temp;Humidity;BMP_temperature;BMP_pressure;BME280_temperature;BME280_humidity;BME280_pressure;Samples;Min_cycle;Max_cycle;Signal;HPM_P1;HPM_P2
2023/03/28 00:00:02;;;;;;;5.32;2.25;;;;;;;2.89;71.73;100413.28;348047;28;1031;-71
2023/03/28 00:00:15;;;;;;;3.45;2.10;;;;;;;2.92;71.17;100414.16;348103;28;1064;-71
2023/03/28 00:00:26;;;;;;;3.50;2.20;;;;;;;2.91;71.36;100422.69;347984;28;1082;-72
2023/03/28 00:00:38;;;;;;;3.72;2.17;;;;;;;2.94;71.73;100417.63;347558;28;1045;-72
2023/03/28 00:00:50;;;;;;;3.25;2.08;;;;;;;2.98;71.62;100413.38;347797;28;1576;-71
2023/03/28 00:01:07;;;;;;;3.30;2.15;;;;;;;2.94;70.90;100416.75;347967;28;1149;-71
2023/03/28 00:01:19;;;;;;;4.63;2.42;;;;;;;2.97;71.33;100416.78;347234;28;1443;-71
2023/03/28 00:01:31;;;;;;;4.78;2.40;;;;;;;2.95;71.46;100415.91;347897;28;1847;-71
2023/03/28 00:01:43;;;;;;;3.83;2.50;;;;;;;2.99;71.25;100410.81;346234;28;1746;-71
2023/03/28 00:01:55;;;;;;;3.30;2.42;;;;;;;2.95;71.39;100413.34;346400;28;1092;-71
2023/03/28 00:02:07;;;;;;;3.42;2.45;;;;;;;3.00;71.25;100409.13;346583;28;1421;-71
2023/03/28 00:02:19;;;;;;;3.97;2.75;;;;;;;3.02;70.79;100415.13;347316;28;1081;-71
2023/03/28 00:02:31;;;;;;;4.85;3.45;;;;;;;3.05;70.96;100415.16;348014;28;1195;-72
2023/03/28 00:02:43;;;;;;;4.57;3.78;;;;;;;3.09;70.70;100413.47;347757;28;1046;-72
2023/03/28 00:02:55;;;;;;;4.65;3.53;;;;;;;2.95;70.78;100418.47;347514;28;1261;-72
2023/03/28 00:03:13;;;;;;;5.40;3.03;;;;;;;2.92;70.70;100423.59;348007;28;1296;-72
2023/03/28 00:03:27;;;;;;;4.72;2.50;;;;;;;2.87;70.90;100415.81;347732;28;1810;-72
2023/03/28 00:03:40;;;;;;;4.65;2.65;;;;;;;2.91;70.92;100417.56;348186;28;1128;-71
2023/03/28 00:03:53;;;;;;;4.82;2.85;;;;;;;2.85;70.95;100419.22;347626;28;1272;-71
2023/03/28 00:04:05;;;;;;;4.15;2.55;;;;;;;2.91;70.99;100421.84;347825;28;1906;-71
2023/03/28 00:04:21;;;;;;;3.75;2.35;;;;;;;2.83;71.25;100418.34;346893;28;2127;-71
2023/03/28 00:04:33;;;;;;;3.45;2.47;;;;;;;2.89;71.15;100418.41;347793;28;1014;-71
2023/03/28 00:04:48;;;;;;;3.42;2.38;;;;;;;2.88;70.78;100416.66;347637;28;1229;-71
2023/03/28 00:05:01;;;;;;;4.53;2.60;;;;;;;2.83;71.20;100415.78;347733;28;1074;-71
2023/03/28 00:05:13;;;;;;;5.30;2.78;;;;;;;2.70;71.26;100419.91;348050;28;999;-71
2023/03/28 00:05:26;;;;;;;5.43;2.42;;;;;;;2.69;71.42;100420.75;348237;28;1224;-71
2023/03/28 00:05:40;;;;;;;5.50;2.35;;;;;;;2.66;71.46;100426.72;347915;28;1038;-71
2023/03/28 00:05:56;;;;;;;5.22;2.50;;;;;;;2.58;71.42;100423.19;347734;28;1236;-71
2023/03/28 00:06:17;;;;;;;4.32;2.30;;;;;;;2.61;71.88;100425.78;347557;28;1011;-71
2023/03/28 00:06:30;;;;;;;2.92;2.15;;;;;;;2.63;72.16;100425.81;346454;28;1065;-71
2023/03/28 00:06:44;;;;;;;3.42;2.40;;;;;;;2.58;71.76;100423.19;347886;28;1320;-71
2023/03/28 00:06:59;;;;;;;4.35;2.28;;;;;;;2.65;72.54;100418.97;346490;28;1240;-71
2023/03/28 00:07:11;;;;;;;4.05;2.00;;;;;;;2.68;72.07;100413.91;346226;28;1711;-71
2023/03/28 00:07:23;;;;;;;3.05;2.22;;;;;;;2.63;71.83;100421.53;348098;28;999;-72
2023/03/28 00:07:35;;;;;;;3.85;2.40;;;;;;;2.51;72.20;100429.06;347871;28;1214;-71
2023/03/28 00:07:48;;;;;;;4.18;2.55;;;;;;;2.55;72.01;100420.56;347721;28;1052;-72
2023/03/28 00:08:00;;;;;;;3.85;2.60;;;;;;;2.53;72.49;100419.69;347657;28;1011;-72
2023/03/28 00:08:11;;;;;;;4.97;2.70;;;;;;;2.57;72.17;100421.44;347770;28;1027;-73
2023/03/28 00:08:23;;;;;;;5.10;2.50;;;;;;;2.65;71.86;100419.84;347740;28;1038;-71
2023/03/28 00:08:38;;;;;;;4.80;2.35;;;;;;;2.66;71.75;100426.72;347791;28;1256;-72
2023/03/28 00:08:50;;;;;;;3.70;2.10;;;;;;;2.74;71.86;100430.22;347818;28;1154;-73
2023/03/28 00:09:04;;;;;;;3.28;2.35;;;;;;;2.74;71.68;100425.09;347915;28;1252;-73
2023/03/28 00:09:17;;;;;;;3.85;2.65;;;;;;;2.77;71.22;100430.25;347740;28;1516;-72
2023/03/28 00:09:30;;;;;;;4.15;2.70;;;;;;;2.78;71.16;100419.16;347770;28;1042;-72
2023/03/28 00:09:42;;;;;;;3.85;2.60;;;;;;;2.67;70.68;100418.16;346327;28;1072;-72
2023/03/28 00:09:56;;;;;;;3.63;2.58;;;;;;;2.74;71.07;100424.25;346689;28;1093;-72
2023/03/28 00:10:09;;;;;;;4.22;2.90;;;;;;;2.76;70.69;100428.53;346318;28;1034;-73
2023/03/28 00:10:21;;;;;;;4.63;2.78;;;;;;;2.76;70.83;100423.41;346627;28;1085;-72
2023/03/28 00:10:33;;;;;;;4.72;2.55;;;;;;;2.77;70.82;100425.13;346574;28;1042;-71
2023/03/28 00:10:46;;;;;;;4.20;2.38;;;;;;;2.82;70.98;100426.88;346853;28;1191;-71
2023/03/28 00:11:09;;;;;;;5.05;2.50;;;;;;;2.73;71.02;100423.34;347378;28;1635;-70
2023/03/28 00:11:21;;;;;;;3.05;2.38;;;;;;;2.66;70.97;100425.84;346203;28;1106;-70
2023/03/28 00:11:33;;;;;;;4.53;2.58;;;;;;;2.73;71.51;100423.34;346557;28;1103;-71
2023/03/28 00:11:46;;;;;;;7.10;2.90;;;;;;;2.78;71.24;100429.41;346790;28;1392;-71
2023/03/28 00:11:58;;;;;;;9.20;2.92;;;;;;;2.66;71.20;100431.84;347366;28;1247;-71
2023/03/28 00:12:10;;;;;;;8.02;2.65;;;;;;;2.63;71.47;100426.66;347446;28;1147;-71
2023/03/28 00:12:23;;;;;;;6.40;2.60;;;;;;;2.68;71.39;100435.28;347368;28;1026;-71
2023/03/28 00:12:35;;;;;;;5.20;2.53;;;;;;;2.73;71.26;100425.91;347626;28;1154;-71
2023/03/28 00:12:47;;;;;;;5.32;2.60;;;;;;;2.83;71.25;100428.59;347328;28;1270;-73
2023/03/28 00:12:59;;;;;;;5.85;2.67;;;;;;;2.84;71.15;100425.19;344849;28;1078;-72
2023/03/28 00:13:12;;;;;;;5.75;3.00;;;;;;;2.82;70.94;100422.63;344823;28;1295;-72
2023/03/28 00:13:28;;;;;;;4.20;3.05;;;;;;;2.70;71.16;100425.91;345092;28;1133;-73
2023/03/28 00:13:40;;;;;;;4.32;2.78;;;;;;;2.75;71.29;100424.22;343657;28;1209;-73
2023/03/28 00:13:59;;;;;;;5.50;2.70;;;;;;;2.79;71.09;100428.56;343575;28;1012;-71
2023/03/28 00:14:13;;;;;;;4.32;2.92;;;;;;;2.85;71.04;100429.50;344751;28;1071;-71
2023/03/28 00:14:25;;;;;;;6.05;2.92;;;;;;;2.86;70.97;100426.06;345072;28;1428;-71
2023/03/28 00:14:37;;;;;;;5.80;2.42;;;;;;;2.88;70.70;100422.69;346272;28;1106;-71
2023/03/28 00:14:49;;;;;;;4.57;2.35;;;;;;;2.91;70.70;100432.13;346058;28;1335;-71
2023/03/28 00:15:03;;;;;;;4.68;2.50;;;;;;;2.83;70.13;100433.75;346848;28;1210;-71
2023/03/28 00:15:15;;;;;;;5.75;2.70;;;;;;;2.83;70.36;100439.72;347577;28;1039;-71
2023/03/28 00:15:27;;;;;;;5.07;2.65;;;;;;;2.87;70.36;100436.34;347341;28;1240;-71
2023/03/28 00:15:42;;;;;;;5.57;2.60;;;;;;;2.79;70.29;100432.84;347018;28;1234;-71
2023/03/28 00:15:54;;;;;;;6.30;2.70;;;;;;;2.81;70.71;100436.28;346958;28;1030;-73
2023/03/28 00:16:11;;;;;;;5.30;2.70;;;;;;;2.76;70.74;100438.81;346433;28;1074;-73
2023/03/28 00:16:24;;;;;;;3.38;2.22;;;;;;;2.78;70.85;100437.13;346536;28;1050;-72
2023/03/28 00:16:38;;;;;;;4.43;2.35;;;;;;;2.75;70.17;100434.50;346395;28;1121;-71
2023/03/28 00:16:51;;;;;;;5.30;2.53;;;;;;;2.76;70.56;100438.81;347348;28;1322;-71
2023/03/28 00:17:06;;;;;;;5.80;2.25;;;;;;;2.73;70.68;100438.75;347414;28;1302;-71
2023/03/28 00:17:18;;;;;;;7.88;2.00;;;;;;;2.67;70.71;100436.13;347895;28;1157;-71
2023/03/28 00:17:30;;;;;;;8.32;2.38;;;;;;;2.67;70.92;100435.25;346770;28;2407;-71
2023/03/28 00:17:42;;;;;;;6.85;2.63;;;;;;;2.61;70.90;100443.75;347231;28;1202;-71
2023/03/28 00:17:54;;;;;;;5.07;3.00;;;;;;;2.64;70.99;100430.97;347897;28;1040;-71
2023/03/28 00:18:10;;;;;;;5.00;3.10;;;;;;;2.65;70.76;100429.25;347546;28;1724;-71
2023/03/28 00:18:22;;;;;;;3.78;3.10;;;;;;;2.65;70.86;100435.25;346405;28;1338;-71
2023/03/28 00:18:37;;;;;;;3.95;3.10;;;;;;;2.67;70.93;100436.13;346554;28;1257;-71
2023/03/28 00:18:50;;;;;;;5.32;3.20;;;;;;;2.69;71.08;100437.00;347255;28;1346;-71
2023/03/28 00:19:14;;;;;;;7.25;3.60;;;;;;;2.72;70.72;100446.47;347669;28;1269;-71
2023/03/28 00:19:31;;;;;;;6.40;3.97;;;;;;;2.67;70.81;100441.25;346330;28;1337;-70
2023/03/28 00:19:45;;;;;;;4.90;3.60;;;;;;;2.65;71.05;100435.25;346872;28;2632;-71
2023/03/28 00:19:57;;;;;;;5.55;3.88;;;;;;;2.64;71.46;100435.25;347936;28;1100;-71
2023/03/28 00:20:11;;;;;;;6.40;4.63;;;;;;;2.68;71.66;100443.00;347716;28;1219;-71
2023/03/28 00:20:23;;;;;;;6.78;5.35;;;;;;;2.70;71.55;100443.88;347834;28;1037;-71
2023/03/28 00:20:42;;;;;;;6.30;5.07;;;;;;;2.73;71.50;100437.91;347724;28;1176;-71
2023/03/28 00:20:54;;;;;;;5.70;4.47;;;;;;;2.80;71.29;100439.72;347674;28;1124;-71
2023/03/28 00:21:22;;;;;;;5.45;4.18;;;;;;;2.77;71.05;100437.94;347596;28;1109;-71
2023/03/28 00:21:38;;;;;;;4.20;3.50;;;;;;;2.75;71.07;100442.19;347738;28;1053;-71
2023/03/28 00:21:50;;;;;;;4.85;4.25;;;;;;;2.80;71.43;100442.28;347921;28;1607;-71
2023/03/28 00:22:02;;;;;;;5.10;4.60;;;;;;;2.74;70.85;100445.63;348732;28;1354;-71
2023/03/28 00:22:15;;;;;;;4.63;3.95;;;;;;;2.75;70.87;100439.63;349012;28;1201;-71
2023/03/28 00:22:29;;;;;;;3.90;3.38;;;;;;;2.79;70.87;100443.97;349027;28;1205;-71
2023/03/28 00:22:41;;;;;;;4.57;2.97;;;;;;;2.80;70.62;100443.13;346618;28;972;-73
2023/03/28 00:22:53;;;;;;;5.35;2.92;;;;;;;2.76;70.68;100441.38;348866;28;1279;-73
2023/03/28 00:23:06;;;;;;;4.72;3.33;;;;;;;2.76;70.72;100443.94;347652;28;1730;-72
2023/03/28 00:23:18;;;;;;;4.10;3.70;;;;;;;2.69;70.75;100434.44;347574;28;1007;-71
2023/03/28 00:23:32;;;;;;;4.13;3.72;;;;;;;2.73;70.88;100443.91;347520;28;1223;-71
2023/03/28 00:23:45;;;;;;;3.42;3.10;;;;;;;2.67;71.08;100438.69;347350;28;1763;-71
2023/03/28 00:24:03;;;;;;;5.28;3.17;;;;;;;2.64;71.10;100448.94;347879;28;1737;-71
2023/03/28 00:24:17;;;;;;;5.95;3.35;;;;;;;2.67;71.07;100443.81;347495;28;1233;-71
2023/03/28 00:24:29;;;;;;;4.32;3.70;;;;;;;2.77;71.07;100439.66;347942;28;1265;-71
2023/03/28 00:24:43;;;;;;;5.07;4.57;;;;;;;2.72;71.25;100437.06;347907;28;1168;-71
2023/03/28 00:24:57;;;;;;;5.93;4.82;;;;;;;2.66;71.19;100442.13;346365;28;1304;-71
2023/03/28 00:25:10;;;;;;;6.30;4.72;;;;;;;2.65;71.53;100447.22;346656;28;1235;-71
2023/03/28 00:25:22;;;;;;;4.68;4.20;;;;;;;2.67;71.48;100443.81;346396;28;1054;-71
2023/03/28 00:25:35;;;;;;;5.57;4.38;;;;;;;2.63;71.46;100444.63;346529;28;1064;-71
2023/03/28 00:25:47;;;;;;;7.43;4.78;;;;;;;2.68;71.20;100450.69;346700;28;1965;-72
2023/03/28 00:26:11;;;;;;;7.93;4.78;;;;;;;2.70;71.54;100443.88;347623;28;1046;-72
2023/03/28 00:26:25;;;;;;;6.22;2.95;;;;;;;2.67;71.38;100442.97;346689;28;1298;-73
2023/03/28 00:26:37;;;;;;;5.10;3.00;;;;;;;2.59;71.40;100448.84;346152;28;1190;-71
2023/03/28 00:26:53;;;;;;;5.03;3.45;;;;;;;2.66;71.75;100441.25;346890;28;1255;-71
2023/03/28 00:27:06;;;;;;;5.63;4.40;;;;;;;2.57;71.39;100447.97;347508;28;1246;-71
2023/03/28 00:27:18;;;;;;;6.65;4.53;;;;;;;2.55;71.16;100453.94;347869;28;1061;-71
2023/03/28 00:27:32;;;;;;;6.63;3.90;;;;;;;2.54;71.51;100452.22;347628;28;1152;-71
2023/03/28 00:27:44;;;;;;;5.25;3.05;;;;;;;2.59;71.59;100448.84;347876;28;1332;-71
2023/03/28 00:27:56;;;;;;;5.15;2.30;;;;;;;2.65;71.25;100450.63;347845;28;1057;-71
2023/03/28 00:28:08;;;;;;;4.72;2.38;;;;;;;2.66;71.09;100449.81;347695;28;1239;-71
2023/03/28 00:28:20;;;;;;;5.32;2.55;;;;;;;2.62;71.25;100442.91;347562;28;2242;-71
2023/03/28 00:28:34;;;;;;;5.93;4.03;;;;;;;2.58;71.35;100451.41;347793;28;1242;-71
2023/03/28 00:28:46;;;;;;;6.82;5.15;;;;;;;2.63;71.56;100451.47;348086;28;1292;-71
2023/03/28 00:29:00;;;;;;;6.35;4.97;;;;;;;2.61;71.32;100454.00;347595;28;1165;-71
2023/03/28 00:29:15;;;;;;;6.60;4.63;;;;;;;2.61;71.40;100456.59;347826;28;1181;-72
2023/03/28 00:29:28;;;;;;;6.55;4.57;;;;;;;2.58;71.00;100456.56;347449;28;1322;-73
2023/03/28 00:29:41;;;;;;;5.18;3.83;;;;;;;2.58;71.07;100454.00;347908;28;1194;-71
2023/03/28 00:29:53;;;;;;;4.25;3.40;;;;;;;2.50;71.23;100450.47;347823;28;1314;-71
2023/03/28 00:30:06;;;;;;;4.15;3.75;;;;;;;2.51;71.58;100449.59;347764;28;1144;-71
2023/03/28 00:30:19;;;;;;;6.32;5.00;;;;;;;2.56;71.67;100460.81;346498;28;2060;-72
2023/03/28 00:30:31;;;;;;;6.63;5.30;;;;;;;2.59;71.55;100460.84;347870;28;1053;-72
2023/03/28 00:30:43;;;;;;;6.63;5.18;;;;;;;2.60;71.41;100457.44;347877;28;1184;-73
2023/03/28 00:31:02;;;;;;;6.43;5.10;;;;;;;2.64;71.65;100454.06;346557;28;1881;-71
2023/03/28 00:31:14;;;;;;;6.47;4.05;;;;;;;2.62;71.57;100455.75;346297;28;1066;-71
2023/03/28 00:31:26;;;;;;;5.43;3.20;;;;;;;2.60;71.59;100458.28;346633;28;1478;-71
2023/03/28 00:31:39;;;;;;;5.20;3.40;;;;;;;2.61;71.59;100451.44;346349;28;1204;-71
2023/03/28 00:31:51;;;;;;;5.68;4.30;;;;;;;2.59;71.52;100456.56;346758;28;2528;-71
2023/03/28 00:32:03;;;;;;;7.38;4.65;;;;;;;2.50;71.64;100455.59;347474;28;1406;-72
2023/03/28 00:32:15;;;;;;;6.68;4.13;;;;;;;2.49;71.80;100456.44;347260;28;1810;-72
2023/03/28 00:32:27;;;;;;;6.20;4.10;;;;;;;2.45;71.43;100452.94;348105;28;1077;-71
2023/03/28 00:32:39;;;;;;;6.50;4.80;;;;;;;2.47;71.80;100460.69;347789;28;1049;-71
2023/03/28 00:32:51;;;;;;;7.00;4.97;;;;;;;2.46;71.67;100454.69;347744;28;1266;-71
2023/03/28 00:33:06;;;;;;;6.43;4.97;;;;;;;2.33;71.90;100453.63;347966;28;1121;-71
2023/03/28 00:33:18;;;;;;;5.93;5.10;;;;;;;2.39;71.86;100458.00;347968;28;898;-72
2023/03/28 00:33:30;;;;;;;6.82;5.43;;;;;;;2.46;72.41;100458.97;347784;28;1180;-73
2023/03/28 00:33:46;;;;;;;6.53;5.63;;;;;;;2.47;72.39;100452.97;347791;28;1112;-72
2023/03/28 00:33:58;;;;;;;6.65;5.75;;;;;;;2.50;72.45;100453.03;347824;28;1671;-73
2023/03/28 00:34:10;;;;;;;6.97;5.15;;;;;;;2.42;72.14;100458.06;348071;28;1038;-71
2023/03/28 00:34:22;;;;;;;6.43;4.00;;;;;;;2.50;72.33;100461.59;347663;28;1168;-71
2023/03/28 00:34:34;;;;;;;5.53;3.00;;;;;;;2.51;72.33;100457.31;347659;28;1059;-71
2023/03/28 00:34:47;;;;;;;6.43;3.35;;;;;;;2.47;72.15;100460.69;347728;28;1264;-73
2023/03/28 00:34:59;;;;;;;5.65;4.50;;;;;;;2.51;72.21;100463.28;347850;28;1046;-73
2023/03/28 00:35:11;;;;;;;5.38;4.68;;;;;;;2.56;72.10;100461.66;348001;28;1273;-71
2023/03/28 00:35:24;;;;;;;5.28;4.70;;;;;;;2.57;71.79;100463.38;347694;28;1277;-71
2023/03/28 00:35:36;;;;;;;5.70;4.68;;;;;;;2.55;71.61;100459.06;346639;28;1625;-71
2023/03/28 00:35:48;;;;;;;6.05;4.75;;;;;;;2.54;71.44;100460.78;347591;28;1285;-70
2023/03/28 00:36:00;;;;;;;6.07;4.70;;;;;;;2.57;71.58;100465.09;347685;28;1066;-71
2023/03/28 00:36:21;;;;;;;5.13;4.18;;;;;;;2.57;71.50;100457.38;347447;28;1062;-71
2023/03/28 00:36:33;;;;;;;4.63;3.60;;;;;;;2.54;71.70;100458.22;346808;28;1065;-71
2023/03/28 00:36:46;;;;;;;5.60;4.03;;;;;;;2.56;71.43;100460.81;346784;28;1333;-71
2023/03/28 00:37:01;;;;;;;5.80;3.72;;;;;;;2.60;71.74;100462.56;347678;28;1204;-71
2023/03/28 00:37:16;;;;;;;4.28;3.05;;;;;;;2.67;71.53;100461.78;346270;28;973;-72
2023/03/28 00:37:28;;;;;;;4.07;2.65;;;;;;;2.71;71.48;100460.13;346238;28;1070;-72
2023/03/28 00:37:40;;;;;;;4.15;2.60;;;;;;;2.70;71.56;100459.28;346390;28;1224;-73
2023/03/28 00:37:57;;;;;;;5.13;3.15;;;;;;;2.70;71.63;100464.41;347421;28;1102;-72
2023/03/28 00:38:12;;;;;;;5.28;3.13;;;;;;;2.72;71.09;100462.72;347331;28;1054;-71
2023/03/28 00:38:26;;;;;;;5.65;2.83;;;;;;;2.71;71.08;100460.97;347914;28;1227;-71
2023/03/28 00:38:38;;;;;;;6.72;3.03;;;;;;;2.74;71.34;100465.31;348123;28;1062;-71
2023/03/28 00:38:52;;;;;;;5.45;2.85;;;;;;;2.66;71.30;100462.66;347673;28;1279;-71
2023/03/28 00:39:05;;;;;;;4.30;3.00;;;;;;;2.62;70.83;100463.44;347585;28;906;-71
2023/03/28 00:39:17;;;;;;;6.63;3.03;;;;;;;2.52;71.07;100466.75;347042;28;1960;-71
2023/03/28 00:39:30;;;;;;;5.97;2.60;;;;;;;2.46;71.57;100469.22;347911;28;1085;-71
2023/03/28 00:39:48;;;;;;;5.45;2.35;;;;;;;2.45;71.31;100467.50;348193;28;1682;-71
2023/03/28 00:40:00;;;;;;;3.40;2.10;;;;;;;2.45;71.46;100463.22;346462;28;1212;-71
2023/03/28 00:40:12;;;;;;;3.58;2.30;;;;;;;2.47;71.49;100458.09;346545;28;1160;-71
2023/03/28 00:40:25;;;;;;;4.65;2.40;;;;;;;2.44;71.75;100466.63;347124;28;1189;-71
2023/03/28 00:40:37;;;;;;;4.65;2.60;;;;;;;2.47;71.79;100464.09;347655;28;1163;-71
2023/03/28 00:40:54;;;;;;;4.75;2.58;;;;;;;2.46;71.95;100466.66;347574;28;1217;-71
2023/03/28 00:41:08;;;;;;;3.10;2.10;;;;;;;2.40;72.18;100465.72;347710;28;1069;-71
2023/03/28 00:41:21;;;;;;;2.33;1.88;;;;;;;2.44;72.41;100463.22;347062;28;2265;-71
2023/03/28 00:41:36;;;;;;;3.17;2.00;;;;;;;2.49;72.37;100464.13;348225;28;1204;-71
2023/03/28 00:41:48;;;;;;;3.65;1.92;;;;;;;2.48;72.16;100462.41;347580;28;1286;-71
2023/03/28 00:42:01;;;;;;;4.72;2.33;;;;;;;2.42;71.84;100470.03;347496;28;1271;-71
2023/03/28 00:42:14;;;;;;;5.47;2.60;;;;;;;2.39;72.30;100471.72;347956;28;1174;-71
2023/03/28 00:42:26;;;;;;;3.80;2.30;;;;;;;2.44;72.77;100465.78;347823;28;1030;-71
2023/03/28 00:42:41;;;;;;;3.60;1.92;;;;;;;2.43;72.47;100470.03;347852;28;1046;-71
2023/03/28 00:42:53;;;;;;;3.92;2.58;;;;;;;2.41;72.19;100471.72;346598;28;2004;-71
2023/03/28 00:43:05;;;;;;;5.10;3.17;;;;;;;2.37;71.77;100465.69;346137;28;1186;-71
2023/03/28 00:43:43;;;;;;;5.25;3.15;;;;;;;2.36;72.39;100463.09;346010;28;1229;-70
2023/03/28 00:43:56;;;;;;;3.42;2.45;;;;;;;2.45;72.55;100470.06;346223;28;1233;-71
2023/03/28 00:44:47;;;;;;;4.78;2.75;;;;;;;2.19;72.58;100466.31;345928;28;1175;-71
2023/03/28 00:45:01;;;;;;;7.72;3.50;;;;;;;2.25;72.78;100470.63;346544;28;1039;-71
2023/03/28 00:45:13;;;;;;;5.80;3.45;;;;;;;2.19;72.82;100474.00;345447;28;1274;-71
2023/03/28 00:45:25;;;;;;;4.22;2.78;;;;;;;2.21;72.58;100468.88;346026;28;1090;-71
2023/03/28 00:45:38;;;;;;;3.78;2.40;;;;;;;2.23;73.29;100472.31;345941;28;1049;-71
2023/03/28 00:45:50;;;;;;;3.72;2.58;;;;;;;2.29;72.97;100467.28;346032;28;1358;-70
2023/03/28 00:46:19;;;;;;;4.78;3.55;;;;;;;2.34;72.69;100470.78;346058;28;1149;-71
2023/03/28 00:46:38;;;;;;;4.30;3.25;;;;;;;2.36;72.82;100470.81;345938;28;2248;-71
2023/03/28 00:46:50;;;;;;;3.53;3.00;;;;;;;2.37;72.91;100470.84;345492;28;1321;-71
2023/03/28 00:47:03;;;;;;;4.18;3.58;;;;;;;2.42;73.12;100472.59;345532;28;1075;-71
2023/03/28 00:47:20;;;;;;;4.68;3.63;;;;;;;2.45;72.96;100475.19;347365;28;1034;-71
2023/03/28 00:47:51;;;;;;;3.88;2.53;;;;;;;2.52;72.35;100470.16;347225;28;1672;-71
2023/03/28 00:48:10;;;;;;;3.72;3.08;;;;;;;2.51;72.34;100467.56;346371;28;2059;-71
2023/03/28 00:48:27;;;;;;;4.97;3.67;;;;;;;2.48;72.36;100467.56;346279;28;1292;-71
2023/03/28 00:48:45;;;;;;;5.43;3.55;;;;;;;2.42;72.19;100467.47;347743;28;1324;-71
2023/03/28 00:49:00;;;;;;;5.88;4.00;;;;;;;2.43;72.69;100466.59;346371;28;1084;-71
2023/03/28 00:49:21;;;;;;;4.75;3.70;;;;;;;2.40;72.83;100470.84;346325;28;1062;-71
2023/03/28 00:49:33;;;;;;;4.95;3.15;;;;;;;2.34;73.06;100475.06;347340;28;1285;-72
2023/03/28 00:49:48;;;;;;;4.18;2.58;;;;;;;2.35;73.32;100472.47;346659;28;1293;-71
2023/03/28 00:50:09;;;;;;;4.30;2.60;;;;;;;2.39;73.10;100466.59;347883;28;1150;-71
2023/03/28 00:50:29;;;;;;;4.05;2.53;;;;;;;2.40;73.13;100464.88;347572;28;1093;-71
2023/03/28 00:50:47;;;;;;;5.07;2.50;;;;;;;2.42;73.18;100468.31;347667;28;1121;-71
2023/03/28 00:51:02;;;;;;;5.38;2.45;;;;;;;2.34;73.82;100473.34;346311;28;1081;-71
2023/03/28 00:51:17;;;;;;;3.40;2.45;;;;;;;2.40;73.35;100465.72;346661;28;1127;-71
2023/03/28 00:51:34;;;;;;;3.55;2.33;;;;;;;2.45;73.59;100468.34;347273;28;1886;-71
2023/03/28 00:51:52;;;;;;;4.05;2.13;;;;;;;2.48;73.36;100467.56;347666;28;1229;-71
2023/03/28 00:52:04;;;;;;;3.25;2.15;;;;;;;2.54;73.46;100467.63;347628;28;1422;-71
2023/03/28 00:52:18;;;;;;;2.88;2.58;;;;;;;2.52;73.04;100469.31;347650;28;1058;-70
2023/03/28 00:52:38;;;;;;;4.45;3.00;;;;;;;2.51;73.03;100465.00;347678;28;1043;-70
2023/03/28 00:53:12;;;;;;;6.72;3.33;;;;;;;2.45;72.93;100467.50;347652;28;1269;-70
2023/03/28 00:53:25;;;;;;;5.45;3.63;;;;;;;2.46;73.11;100464.94;347239;28;1218;-71
2023/03/28 00:53:37;;;;;;;5.10;3.20;;;;;;;2.45;73.14;100462.34;348097;28;1178;-71
2023/03/28 00:53:51;;;;;;;5.05;3.42;;;;;;;2.40;72.83;100473.44;347780;28;1372;-71
2023/03/28 00:54:06;;;;;;;4.57;3.60;;;;;;;2.36;73.07;100471.66;347807;28;1300;-71
2023/03/28 00:54:19;;;;;;;4.05;2.85;;;;;;;2.43;73.38;100464.03;347831;28;1041;-71
2023/03/28 00:54:38;;;;;;;3.65;2.20;;;;;;;2.39;73.33;100470.81;347027;28;1899;-71
2023/03/28 00:54:51;;;;;;;3.78;2.20;;;;;;;2.45;73.35;100472.63;347636;28;1234;-72
2023/03/28 00:55:06;;;;;;;2.78;1.90;;;;;;;2.49;73.41;100470.09;347853;28;1277;-72
2023/03/28 00:55:25;;;;;;;3.67;1.92;;;;;;;2.52;73.27;100464.19;347820;28;1272;-72
2023/03/28 00:55:50;;;;;;;4.53;2.20;;;;;;;2.38;73.71;100467.41;347788;28;1093;-72
2023/03/28 00:56:07;;;;;;;4.10;1.88;;;;;;;2.50;73.92;100463.28;347808;28;1053;-71
2023/03/28 00:56:22;;;;;;;5.68;1.70;;;;;;;2.59;73.67;100465.97;347839;28;1168;-72
2023/03/28 00:56:36;;;;;;;5.47;1.80;;;;;;;2.50;74.02;100465.88;346926;28;1961;-71
2023/03/28 00:56:53;;;;;;;3.85;1.70;;;;;;;2.54;73.82;100473.63;346731;28;1343;-71
2023/03/28 00:57:07;;;;;;;4.60;1.70;;;;;;;2.51;73.60;100467.56;347606;28;1067;-71
2023/03/28 00:57:20;;;;;;;4.18;1.80;;;;;;;2.44;73.26;100471.78;347587;28;1062;-71
2023/03/28 00:57:32;;;;;;;4.20;1.85;;;;;;;2.47;73.31;100473.50;347624;28;1214;-71
2023/03/28 00:57:46;;;;;;;4.30;1.92;;;;;;;2.47;73.68;100470.94;346902;28;1661;-72
2023/03/28 00:57:59;;;;;;;5.05;1.92;;;;;;;2.43;73.38;100470.03;346377;28;1193;-71
2023/03/28 00:58:22;;;;;;;5.53;2.25;;;;;;;2.38;74.11;100467.41;346413;28;1222;-71
2023/03/28 00:58:41;;;;;;;4.38;3.08;;;;;;;2.36;73.83;100469.09;346155;28;1359;-71
2023/03/28 00:58:55;;;;;;;4.57;3.60;;;;;;;2.38;73.72;100467.41;347709;28;1222;-71
2023/03/28 00:59:11;;;;;;;5.97;3.95;;;;;;;2.37;73.87;100475.97;347659;28;1030;-71
2023/03/28 00:59:25;;;;;;;5.75;3.95;;;;;;;2.36;73.74;100471.66;346256;28;1042;-71
2023/03/28 00:59:38;;;;;;;5.72;4.10;;;;;;;2.43;73.86;100469.19;346464;28;1715;-71
2023/03/28 00:59:50;;;;;;;5.75;3.53;;;;;;;2.38;74.05;100469.97;347874;28;1284;-71
2023/03/28 01:00:08;;;;;;;4.50;3.20;;;;;;;2.36;74.14;100474.22;347699;28;1061;-71
2023/03/28 01:00:21;;;;;;;3.55;3.20;;;;;;;2.41;73.90;100466.59;347828;28;1088;-71
2023/03/28 01:00:34;;;;;;;4.10;2.88;;;;;;;2.31;74.37;100470.72;347827;28;1251;-71
2023/03/28 01:00:47;;;;;;;4.70;2.95;;;;;;;2.38;74.59;100477.66;347382;28;1382;-71
2023/03/28 01:00:59;;;;;;;5.45;3.70;;;;;;;2.38;74.24;100467.41;346761;28;1671;-71
2023/03/28 01:01:14;;;;;;;5.20;4.28;;;;;;;2.33;73.98;100471.59;346994;28;1640;-71
2023/03/28 01:01:26;;;;;;;6.03;4.93;;;;;;;2.34;74.37;100475.06;346628;28;1278;-72
2023/03/28 01:01:38;;;;;;;6.15;5.30;;;;;;;2.33;74.06;100469.03;347596;28;1018;-73
2023/03/28 01:01:54;;;;;;;5.65;4.65;;;;;;;2.38;74.27;100469.97;348548;28;1245;-72
2023/03/28 01:02:06;;;;;;;5.75;4.57;;;;;;;2.31;74.82;100469.88;349428;28;1386;-72
2023/03/28 01:02:19;;;;;;;7.90;5.80;;;;;;;2.28;74.94;100470.69;349198;28;1273;-71
2023/03/28 01:02:31;;;;;;;7.95;6.63;;;;;;;2.29;74.90;100474.09;349231;28;1138;-71
2023/03/28 01:02:49;;;;;;;7.07;6.38;;;;;;;2.34;74.58;100464.78;349083;28;1022;-71
2023/03/28 01:03:05;;;;;;;5.00;2.85;;;;;;;2.44;74.75;100470.91;346439;28;1365;-72
2023/03/28 01:03:18;;;;;;;5.93;2.70;;;;;;;2.18;74.50;100468.84;347099;28;1098;-72
2023/03/28 01:03:34;;;;;;;6.38;3.38;;;;;;;2.09;74.81;100471.25;347978;28;1057;-73
2023/03/28 01:03:55;;;;;;;4.75;2.97;;;;;;;2.07;74.74;100480.63;347995;28;1365;-71
2023/03/28 01:04:08;;;;;;;3.08;2.38;;;;;;;2.00;75.13;100467.72;347647;28;1049;-71
2023/03/28 01:04:24;;;;;;;4.00;2.40;;;;;;;2.08;74.91;100472.09;347852;28;1034;-70
2023/03/28 01:04:45;;;;;;;4.22;2.50;;;;;;;2.04;75.31;100471.19;347026;28;1775;-71
2023/03/28 01:05:02;;;;;;;4.70;2.60;;;;;;;2.10;75.19;100470.44;346387;28;1084;-71
2023/03/28 01:05:14;;;;;;;6.05;2.70;;;;;;;2.02;75.42;100474.59;346486;28;1057;-72
2023/03/28 01:05:31;;;;;;;6.93;2.70;;;;;;;2.01;75.18;100471.13;346372;28;1054;-72
2023/03/28 01:05:44;;;;;;;5.80;2.47;;;;;;;1.94;75.13;100469.31;346457;28;1090;-72
2023/03/28 01:05:56;;;;;;;6.32;2.33;;;;;;;1.94;75.13;100469.31;346713;28;1167;-72
2023/03/28 01:06:12;;;;;;;5.57;2.17;;;;;;;1.99;75.54;100473.69;346302;28;1051;-73
2023/03/28 01:06:24;;;;;;;3.75;1.95;;;;;;;1.95;75.83;100469.34;346620;28;867;-71
2023/03/28 01:06:45;;;;;;;4.35;1.90;;;;;;;2.02;75.85;100467.75;346554;28;1611;-71
2023/03/28 01:06:57;;;;;;;3.42;1.90;;;;;;;2.07;75.86;100470.38;345966;28;1080;-71
2023/03/28 01:07:09;;;;;;;2.88;1.80;;;;;;;2.09;76.01;100466.13;346578;28;835;-71
2023/03/28 01:07:22;;;;;;;3.30;1.90;;;;;;;2.14;75.52;100472.19;346450;28;1074;-72
2023/03/28 01:07:44;;;;;;;4.22;2.70;;;;;;;2.15;75.81;100471.34;345952;28;1087;-72
2023/03/28 01:08:03;;;;;;;3.78;2.53;;;;;;;2.13;76.05;100471.34;344926;28;1174;-72
2023/03/28 01:08:22;;;;;;;3.10;1.98;;;;;;;2.19;75.96;100470.53;344804;28;1302;-72
2023/03/28 01:08:40;;;;;;;3.20;2.55;;;;;;;2.19;76.11;100470.53;344973;28;1016;-71
2023/03/28 01:08:55;;;;;;;3.50;2.50;;;;;;;2.25;75.63;100475.75;346424;28;1909;-71
2023/03/28 01:09:08;;;;;;;3.78;2.40;;;;;;;2.27;75.96;100480.91;347417;28;1224;-71
2023/03/28 01:09:22;;;;;;;3.92;2.80;;;;;;;2.22;75.56;100470.59;347620;28;1225;-71
2023/03/28 01:09:35;;;;;;;3.75;2.85;;;;;;;2.13;75.66;100475.59;347073;28;2184;-73